sensor_id;sensor_type;location;lat;lon;timestamp;P1;durP1;ratioP1;P2;durP2;ratioP2
7239;SDS011;3661;53.288;10.458;2023-04-28T00:00:45;937.60;;;872.75;;
7239;SDS011;3661;53.288;10.458;2023-04-28T00:03:17;946.72;;;882.33;;
7239;SDS011;3661;53.288;10.458;2023-04-28T00:05:51;941.85;;;876.72;;
7239;SDS011;3661;53.288;10.458;2023-04-28T00:08:25;942.65;;;878.15;;
7239;SDS011;3661;53.288;10.458;2023-04-28T00:10:57;940.83;;;876.50;;
7239;SDS011;3661;53.288;10.458;2023-04-28T00:13:29;950.00;;;885.70;;
7239;SDS011;3661;53.288;10.458;2023-04-28T00:16:01;956.20;;;891.35;;
7239;SDS011;3661;53.288;10.458;2023-04-28T00:18:33;968.30;;;903.67;;
7239;SDS011;3661;53.288;10.458;2023-04-28T00:21:05;943.03;;;878.25;;
7239;SDS011;3661;53.288;10.458;2023-04-28T00:23:39;914.38;;;850.03;;
7239;SDS011;3661;53.288;10.458;2023-04-28T00:26:11;942.13;;;877.88;;
7239;SDS011;3661;53.288;10.458;2023-04-28T00:28:43;925.10;;;861.13;;
7239;SDS011;3661;53.288;10.458;2023-04-28T00:31:15;933.50;;;869.22;;
7239;SDS011;3661;53.288;10.458;2023-04-28T00:33:48;950.93;;;885.87;;
7239;SDS011;3661;53.288;10.458;2023-04-28T00:36:20;929.53;;;865.05;;
7239;SDS011;3661;53.288;10.458;2023-04-28T00:38:53;921.58;;;857.92;;
7239;SDS011;3661;53.288;10.458;2023-04-28T00:41:26;934.92;;;870.47;;
7239;SDS011;3661;53.288;10.458;2023-04-28T00:43:59;938.88;;;874.92;;
7239;SDS011;3661;53.288;10.458;2023-04-28T00:46:31;924.33;;;860.08;;
7239;SDS011;3661;53.288;10.458;2023-04-28T00:49:04;896.30;;;832.95;;
7239;SDS011;3661;53.288;10.458;2023-04-28T00:51:36;926.22;;;862.65;;
7239;SDS011;3661;53.288;10.458;2023-04-28T00:54:10;925.78;;;862.33;;
7239;SDS011;3661;53.288;10.458;2023-04-28T00:56:44;910.20;;;846.90;;
7239;SDS011;3661;53.288;10.458;2023-04-28T00:59:17;910.00;;;846.95;;
7239;SDS011;3661;53.288;10.458;2023-04-28T01:01:49;905.45;;;842.35;;
7239;SDS011;3661;53.288;10.458;2023-04-28T01:04:22;915.70;;;852.10;;
7239;SDS011;3661;53.288;10.458;2023-04-28T01:06:54;921.50;;;857.78;;
7239;SDS011;3661;53.288;10.458;2023-04-28T01:09:28;909.33;;;846.10;;
7239;SDS011;3661;53.288;10.458;2023-04-28T01:12:00;892.03;;;829.42;;
7239;SDS011;3661;53.288;10.458;2023-04-28T01:14:32;900.90;;;837.83;;
7239;SDS011;3661;53.288;10.458;2023-04-28T01:17:05;903.70;;;839.63;;
7239;SDS011;3661;53.288;10.458;2023-04-28T01:19:39;893.03;;;829.95;;
7239;SDS011;3661;53.288;10.458;2023-04-28T01:22:14;886.70;;;823.23;;
7239;SDS011;3661;53.288;10.458;2023-04-28T01:24:47;898.63;;;835.53;;
7239;SDS011;3661;53.288;10.458;2023-04-28T01:27:19;871.33;;;808.53;;
7239;SDS011;3661;53.288;10.458;2023-04-28T01:29:53;882.53;;;819.47;;
7239;SDS011;3661;53.288;10.458;2023-04-28T01:32:27;877.05;;;814.55;;
7239;SDS011;3661;53.288;10.458;2023-04-28T01:34:59;889.50;;;826.97;;
7239;SDS011;3661;53.288;10.458;2023-04-28T01:37:31;884.70;;;822.40;;
7239;SDS011;3661;53.288;10.458;2023-04-28T01:40:06;879.28;;;816.85;;
7239;SDS011;3661;53.288;10.458;2023-04-28T01:42:38;889.38;;;826.92;;
7239;SDS011;3661;53.288;10.458;2023-04-28T01:45:13;877.67;;;815.57;;
7239;SDS011;3661;53.288;10.458;2023-04-28T01:47:47;865.00;;;802.90;;
7239;SDS011;3661;53.288;10.458;2023-04-28T01:50:22;869.08;;;807.40;;
7239;SDS011;3661;53.288;10.458;2023-04-28T01:52:54;866.28;;;804.88;;
7239;SDS011;3661;53.288;10.458;2023-04-28T01:55:31;876.20;;;814.78;;
7239;SDS011;3661;53.288;10.458;2023-04-28T01:58:03;850.10;;;788.43;;
7239;SDS011;3661;53.288;10.458;2023-04-28T02:00:40;842.95;;;781.28;;
7239;SDS011;3661;53.288;10.458;2023-04-28T02:03:12;858.85;;;796.85;;
7239;SDS011;3661;53.288;10.458;2023-04-28T02:05:45;851.95;;;790.75;;
7239;SDS011;3661;53.288;10.458;2023-04-28T02:08:17;861.33;;;799.88;;
7239;SDS011;3661;53.288;10.458;2023-04-28T02:10:51;867.45;;;805.63;;
7239;SDS011;3661;53.288;10.458;2023-04-28T02:13:23;857.90;;;796.30;;
7239;SDS011;3661;53.288;10.458;2023-04-28T02:15:58;864.72;;;803.38;;
7239;SDS011;3661;53.288;10.458;2023-04-28T02:18:33;855.65;;;794.42;;
7239;SDS011;3661;53.288;10.458;2023-04-28T02:21:13;828.93;;;768.03;;
7239;SDS011;3661;53.288;10.458;2023-04-28T02:23:45;833.45;;;772.45;;
7239;SDS011;3661;53.288;10.458;2023-04-28T02:26:19;814.80;;;753.55;;
7239;SDS011;3661;53.288;10.458;2023-04-28T02:28:52;819.65;;;758.95;;
7239;SDS011;3661;53.288;10.458;2023-04-28T02:31:26;832.03;;;770.80;;
7239;SDS011;3661;53.288;10.458;2023-04-28T02:33:58;821.53;;;760.72;;
7239;SDS011;3661;53.288;10.458;2023-04-28T02:36:33;816.60;;;755.88;;
7239;SDS011;3661;53.288;10.458;2023-04-28T02:39:05;841.13;;;779.42;;
7239;SDS011;3661;53.288;10.458;2023-04-28T02:41:40;808.17;;;746.85;;
7239;SDS011;3661;53.288;10.458;2023-04-28T02:44:12;824.45;;;763.65;;
7239;SDS011;3661;53.288;10.458;2023-04-28T02:46:47;829.58;;;768.55;;
7239;SDS011;3661;53.288;10.458;2023-04-28T02:49:19;827.00;;;766.55;;
7239;SDS011;3661;53.288;10.458;2023-04-28T02:51:53;825.92;;;765.17;;
7239;SDS011;3661;53.288;10.458;2023-04-28T02:54:25;827.95;;;767.60;;
7239;SDS011;3661;53.288;10.458;2023-04-28T02:57:02;812.90;;;752.95;;
7239;SDS011;3661;53.288;10.458;2023-04-28T02:59:35;820.97;;;760.35;;
7239;SDS011;3661;53.288;10.458;2023-04-28T03:02:07;811.75;;;751.95;;
7239;SDS011;3661;53.288;10.458;2023-04-28T03:04:42;796.10;;;736.15;;
7239;SDS011;3661;53.288;10.458;2023-04-28T03:07:14;814.45;;;754.13;;
7239;SDS011;3661;53.288;10.458;2023-04-28T03:09:47;812.45;;;752.45;;
7239;SDS011;3661;53.288;10.458;2023-04-28T03:12:20;795.70;;;736.13;;
7239;SDS011;3661;53.288;10.458;2023-04-28T03:14:52;790.15;;;730.55;;
7239;SDS011;3661;53.288;10.458;2023-04-28T03:17:25;805.10;;;745.40;;
7239;SDS011;3661;53.288;10.458;2023-04-28T03:19:59;798.83;;;739.33;;
7239;SDS011;3661;53.288;10.458;2023-04-28T03:22:32;811.03;;;751.10;;
7239;SDS011;3661;53.288;10.458;2023-04-28T03:25:04;777.27;;;718.30;;
7239;SDS011;3661;53.288;10.458;2023-04-28T03:27:41;806.47;;;747.08;;
7239;SDS011;3661;53.288;10.458;2023-04-28T03:30:14;794.58;;;735.50;;
7239;SDS011;3661;53.288;10.458;2023-04-28T03:32:47;782.30;;;723.00;;
7239;SDS011;3661;53.288;10.458;2023-04-28T03:35:19;796.45;;;737.15;;
7239;SDS011;3661;53.288;10.458;2023-04-28T03:37:51;769.53;;;710.28;;
7239;SDS011;3661;53.288;10.458;2023-04-28T03:40:23;790.10;;;730.70;;
7239;SDS011;3661;53.288;10.458;2023-04-28T03:42:57;786.35;;;727.33;;
7239;SDS011;3661;53.288;10.458;2023-04-28T03:45:30;781.70;;;722.90;;
7239;SDS011;3661;53.288;10.458;2023-04-28T03:48:03;776.72;;;717.28;;
7239;SDS011;3661;53.288;10.458;2023-04-28T03:50:35;771.00;;;712.10;;
7239;SDS011;3661;53.288;10.458;2023-04-28T03:53:09;788.03;;;729.27;;
7239;SDS011;3661;53.288;10.458;2023-04-28T03:55:42;762.97;;;704.00;;
7239;SDS011;3661;53.288;10.458;2023-04-28T03:58:16;793.08;;;734.28;;
7239;SDS011;3661;53.288;10.458;2023-04-28T04:00:48;771.97;;;713.05;;
7239;SDS011;3661;53.288;10.458;2023-04-28T04:03:20;773.85;;;714.78;;
7239;SDS011;3661;53.288;10.458;2023-04-28T04:05:55;766.05;;;707.78;;
7239;SDS011;3661;53.288;10.458;2023-04-28T04:08:27;750.42;;;692.10;;
7239;SDS011;3661;53.288;10.458;2023-04-28T04:11:00;753.53;;;695.10;;
7239;SDS011;3661;53.288;10.458;2023-04-28T04:13:34;759.70;;;701.03;;
7239;SDS011;3661;53.288;10.458;2023-04-28T04:16:06;771.17;;;712.17;;
7239;SDS011;3661;53.288;10.458;2023-04-28T04:18:38;770.53;;;711.25;;
7239;SDS011;3661;53.288;10.458;2023-04-28T04:21:12;754.20;;;695.35;;
7239;SDS011;3661;53.288;10.458;2023-04-28T04:23:49;755.55;;;696.70;;
7239;SDS011;3661;53.288;10.458;2023-04-28T04:26:21;770.42;;;711.63;;
7239;SDS011;3661;53.288;10.458;2023-04-28T04:28:57;767.25;;;708.55;;
7239;SDS011;3661;53.288;10.458;2023-04-28T04:31:31;781.50;;;722.90;;
7239;SDS011;3661;53.288;10.458;2023-04-28T04:34:03;781.30;;;722.60;;
7239;SDS011;3661;53.288;10.458;2023-04-28T04:36:35;766.00;;;707.17;;
7239;SDS011;3661;53.288;10.458;2023-04-28T04:39:07;773.80;;;715.25;;
7239;SDS011;3661;53.288;10.458;2023-04-28T04:41:40;778.42;;;718.75;;
7239;SDS011;3661;53.288;10.458;2023-04-28T04:44:15;773.58;;;714.45;;
7239;SDS011;3661;53.288;10.458;2023-04-28T04:46:47;769.25;;;710.28;;
7239;SDS011;3661;53.288;10.458;2023-04-28T04:49:19;772.90;;;713.83;;
7239;SDS011;3661;53.288;10.458;2023-04-28T04:51:51;769.73;;;710.83;;
7239;SDS011;3661;53.288;10.458;2023-04-28T04:54:23;758.83;;;699.53;;
7239;SDS011;3661;53.288;10.458;2023-04-28T04:56:55;799.42;;;739.40;;
7239;SDS011;3661;53.288;10.458;2023-04-28T04:59:29;787.22;;;727.90;;
7239;SDS011;3661;53.288;10.458;2023-04-28T05:02:04;788.75;;;729.13;;
7239;SDS011;3661;53.288;10.458;2023-04-28T05:04:36;793.17;;;733.30;;
7239;SDS011;3661;53.288;10.458;2023-04-28T05:07:08;809.85;;;749.50;;
7239;SDS011;3661;53.288;10.458;2023-04-28T05:09:40;815.70;;;755.33;;
7239;SDS011;3661;53.288;10.458;2023-04-28T05:12:13;830.67;;;770.08;;
7239;SDS011;3661;53.288;10.458;2023-04-28T05:14:46;829.92;;;768.92;;
7239;SDS011;3661;53.288;10.458;2023-04-28T05:17:18;823.25;;;761.85;;
7239;SDS011;3661;53.288;10.458;2023-04-28T05:19:50;839.47;;;778.17;;
7239;SDS011;3661;53.288;10.458;2023-04-28T05:22:22;826.47;;;765.10;;
7239;SDS011;3661;53.288;10.458;2023-04-28T05:24:55;853.60;;;791.97;;
7239;SDS011;3661;53.288;10.458;2023-04-28T05:27:27;845.85;;;783.90;;
7239;SDS011;3661;53.288;10.458;2023-04-28T05:30:01;852.45;;;790.67;;
7239;SDS011;3661;53.288;10.458;2023-04-28T05:32:35;839.47;;;777.85;;
7239;SDS011;3661;53.288;10.458;2023-04-28T05:35:07;855.05;;;793.28;;
7239;SDS011;3661;53.288;10.458;2023-04-28T05:37:40;872.50;;;809.90;;
7239;SDS011;3661;53.288;10.458;2023-04-28T05:40:14;863.53;;;801.60;;
7239;SDS011;3661;53.288;10.458;2023-04-28T05:42:46;862.17;;;800.15;;
7239;SDS011;3661;53.288;10.458;2023-04-28T05:45:19;868.58;;;805.70;;
7239;SDS011;3661;53.288;10.458;2023-04-28T05:47:52;864.97;;;802.70;;
7239;SDS011;3661;53.288;10.458;2023-04-28T05:50:24;886.13;;;823.53;;
7239;SDS011;3661;53.288;10.458;2023-04-28T05:52:56;882.95;;;820.17;;
7239;SDS011;3661;53.288;10.458;2023-04-28T05:55:28;890.58;;;827.40;;
7239;SDS011;3661;53.288;10.458;2023-04-28T05:58:00;886.45;;;822.80;;
7239;SDS011;3661;53.288;10.458;2023-04-28T06:00:34;900.60;;;837.00;;
7239;SDS011;3661;53.288;10.458;2023-04-28T06:03:06;885.97;;;822.33;;
7239;SDS011;3661;53.288;10.458;2023-04-28T06:05:40;911.22;;;847.28;;
7239;SDS011;3661;53.288;10.458;2023-04-28T06:08:12;911.35;;;847.72;;
7239;SDS011;3661;53.288;10.458;2023-04-28T06:10:44;901.33;;;837.03;;
7239;SDS011;3661;53.288;10.458;2023-04-28T06:13:16;892.97;;;829.42;;
7239;SDS011;3661;53.288;10.458;2023-04-28T06:15:54;906.92;;;842.95;;
7239;SDS011;3661;53.288;10.458;2023-04-28T06:18:26;922.78;;;858.30;;
7239;SDS011;3661;53.288;10.458;2023-04-28T06:21:01;910.57;;;846.07;;
7239;SDS011;3661;53.288;10.458;2023-04-28T06:23:34;916.05;;;852.05;;
7239;SDS011;3661;53.288;10.458;2023-04-28T06:26:09;925.13;;;860.45;;
7239;SDS011;3661;53.288;10.458;2023-04-28T06:28:44;916.83;;;852.85;;
7239;SDS011;3661;53.288;10.458;2023-04-28T06:31:21;927.53;;;862.55;;
7239;SDS011;3661;53.288;10.458;2023-04-28T06:33:56;932.60;;;868.08;;
7239;SDS011;3661;53.288;10.458;2023-04-28T06:36:28;960.75;;;895.45;;
7239;SDS011;3661;53.288;10.458;2023-04-28T06:39:02;952.65;;;886.72;;
7239;SDS011;3661;53.288;10.458;2023-04-28T06:41:37;962.63;;;897.37;;
7239;SDS011;3661;53.288;10.458;2023-04-28T06:44:10;958.20;;;892.70;;
7239;SDS011;3661;53.288;10.458;2023-04-28T06:46:46;965.63;;;899.95;;
7239;SDS011;3661;53.288;10.458;2023-04-28T06:49:18;975.92;;;909.47;;
7239;SDS011;3661;53.288;10.458;2023-04-28T06:51:51;968.80;;;902.43;;
7239;SDS011;3661;53.288;10.458;2023-04-28T06:54:23;993.63;;;927.83;;
7239;SDS011;3661;53.288;10.458;2023-04-28T06:56:55;988.20;;;922.07;;
7239;SDS011;3661;53.288;10.458;2023-04-28T06:59:27;995.83;;;929.72;;
7239;SDS011;3661;53.288;10.458;2023-04-28T07:02:01;1055.78;;;989.28;;
7239;SDS011;3661;53.288;10.458;2023-04-28T07:04:34;1078.60;;;999.90;;
7239;SDS011;3661;53.288;10.458;2023-04-28T07:07:06;1095.88;;;999.90;;
7239;SDS011;3661;53.288;10.458;2023-04-28T07:09:39;1121.13;;;999.90;;
7239;SDS011;3661;53.288;10.458;2023-04-28T07:12:11;1174.30;;;999.90;;
7239;SDS011;3661;53.288;10.458;2023-04-28T07:14:43;1246.20;;;999.90;;
7239;SDS011;3661;53.288;10.458;2023-04-28T07:17:17;1158.70;;;999.90;;
7239;SDS011;3661;53.288;10.458;2023-04-28T07:19:50;1236.25;;;999.90;;
7239;SDS011;3661;53.288;10.458;2023-04-28T07:22:22;1219.68;;;999.90;;
7239;SDS011;3661;53.288;10.458;2023-04-28T07:24:54;1260.72;;;999.90;;
7239;SDS011;3661;53.288;10.458;2023-04-28T07:27:26;1230.30;;;999.90;;
7239;SDS011;3661;53.288;10.458;2023-04-28T07:29:59;1243.45;;;999.90;;
7239;SDS011;3661;53.288;10.458;2023-04-28T07:32:33;1272.67;;;999.90;;
7239;SDS011;3661;53.288;10.458;2023-04-28T07:35:06;1274.07;;;999.90;;
7239;SDS011;3661;53.288;10.458;2023-04-28T07:37:38;1293.10;;;999.90;;
7239;SDS011;3661;53.288;10.458;2023-04-28T07:40:11;1275.68;;;999.90;;
7239;SDS011;3661;53.288;10.458;2023-04-28T07:42:43;1328.95;;;999.90;;
7239;SDS011;3661;53.288;10.458;2023-04-28T07:45:16;1341.18;;;999.90;;
7239;SDS011;3661;53.288;10.458;2023-04-28T07:47:49;1339.33;;;999.90;;
7239;SDS011;3661;53.288;10.458;2023-04-28T07:50:22;1352.45;;;999.90;;
7239;SDS011;3661;53.288;10.458;2023-04-28T07:52:54;1363.10;;;999.90;;
7239;SDS011;3661;53.288;10.458;2023-04-28T07:55:27;1360.87;;;999.90;;
7239;SDS011;3661;53.288;10.458;2023-04-28T07:57:59;1394.15;;;999.90;;
7239;SDS011;3661;53.288;10.458;2023-04-28T08:00:32;1409.85;;;999.90;;
7239;SDS011;3661;53.288;10.458;2023-04-28T08:03:05;1418.63;;;999.90;;
7239;SDS011;3661;53.288;10.458;2023-04-28T08:05:37;1419.40;;;999.90;;
7239;SDS011;3661;53.288;10.458;2023-04-28T08:08:10;1425.75;;;999.90;;
7239;SDS011;3661;53.288;10.458;2023-04-28T08:10:42;1454.15;;;999.90;;
7239;SDS011;3661;53.288;10.458;2023-04-28T08:13:14;1428.45;;;999.90;;
7239;SDS011;3661;53.288;10.458;2023-04-28T08:15:47;1465.40;;;999.90;;
7239;SDS011;3661;53.288;10.458;2023-04-28T08:18:21;1472.72;;;999.90;;
7239;SDS011;3661;53.288;10.458;2023-04-28T08:20:54;1464.10;;;999.90;;
7239;SDS011;3661;53.288;10.458;2023-04-28T08:23:26;1467.65;;;999.90;;
7239;SDS011;3661;53.288;10.458;2023-04-28T08:26:01;1489.13;;;999.90;;
7239;SDS011;3661;53.288;10.458;2023-04-28T08:28:35;1507.20;;;999.90;;
7239;SDS011;3661;53.288;10.458;2023-04-28T08:31:08;1503.72;;;999.90;;
7239;SDS011;3661;53.288;10.458;2023-04-28T08:33:41;1529.60;;;999.90;;
7239;SDS011;3661;53.288;10.458;2023-04-28T08:36:17;1535.33;;;999.90;;
7239;SDS011;3661;53.288;10.458;2023-04-28T08:38:50;1556.68;;;999.90;;
7239;SDS011;3661;53.288;10.458;2023-04-28T08:41:22;1548.80;;;999.90;;
7239;SDS011;3661;53.288;10.458;2023-04-28T08:43:57;1550.30;;;999.90;;
7239;SDS011;3661;53.288;10.458;2023-04-28T08:46:29;1573.63;;;999.90;;
7239;SDS011;3661;53.288;10.458;2023-04-28T08:49:03;1571.70;;;999.90;;
7239;SDS011;3661;53.288;10.458;2023-04-28T08:51:43;1567.93;;;999.90;;
7239;SDS011;3661;53.288;10.458;2023-04-28T08:54:16;1602.87;;;999.90;;
7239;SDS011;3661;53.288;10.458;2023-04-28T08:56:50;1596.07;;;999.90;;
7239;SDS011;3661;53.288;10.458;2023-04-28T08:59:22;1600.90;;;999.90;;
7239;SDS011;3661;53.288;10.458;2023-04-28T09:04:52;1635.82;;;999.90;;
7239;SDS011;3661;53.288;10.458;2023-04-28T09:07:24;1642.47;;;999.90;;
7239;SDS011;3661;53.288;10.458;2023-04-28T09:10:15;1655.37;;;999.90;;
7239;SDS011;3661;53.288;10.458;2023-04-28T09:12:50;1646.30;;;999.90;;
7239;SDS011;3661;53.288;10.458;2023-04-28T09:15:24;1653.53;;;999.90;;
7239;SDS011;3661;53.288;10.458;2023-04-28T09:17:57;1659.95;;;999.90;;
7239;SDS011;3661;53.288;10.458;2023-04-28T09:20:32;1653.15;;;999.90;;
7239;SDS011;3661;53.288;10.458;2023-04-28T09:23:13;1660.55;;;999.90;;
7239;SDS011;3661;53.288;10.458;2023-04-28T09:25:56;1678.80;;;999.90;;
7239;SDS011;3661;53.288;10.458;2023-04-28T09:28:34;1697.32;;;999.90;;
7239;SDS011;3661;53.288;10.458;2023-04-28T09:31:09;1689.18;;;999.90;;
7239;SDS011;3661;53.288;10.458;2023-04-28T09:33:57;1686.10;;;999.90;;
7239;SDS011;3661;53.288;10.458;2023-04-28T09:36:31;1696.25;;;999.90;;
7239;SDS011;3661;53.288;10.458;2023-04-28T09:39:03;1700.45;;;999.90;;
7239;SDS011;3661;53.288;10.458;2023-04-28T09:41:36;1715.53;;;999.90;;
7239;SDS011;3661;53.288;10.458;2023-04-28T09:44:13;1725.63;;;999.90;;
7239;SDS011;3661;53.288;10.458;2023-04-28T09:46:46;1734.85;;;999.90;;
7239;SDS011;3661;53.288;10.458;2023-04-28T09:49:18;1743.07;;;999.90;;
7239;SDS011;3661;53.288;10.458;2023-04-28T09:51:52;1742.50;;;999.90;;
7239;SDS011;3661;53.288;10.458;2023-04-28T09:54:24;1749.53;;;999.90;;
7239;SDS011;3661;53.288;10.458;2023-04-28T09:56:59;1748.72;;;999.90;;
7239;SDS011;3661;53.288;10.458;2023-04-28T09:59:31;1769.60;;;999.90;;
7239;SDS011;3661;53.288;10.458;2023-04-28T10:02:05;1772.10;;;999.90;;
7239;SDS011;3661;53.288;10.458;2023-04-28T10:04:38;1787.57;;;999.90;;
7239;SDS011;3661;53.288;10.458;2023-04-28T10:07:14;1778.20;;;999.90;;
7239;SDS011;3661;53.288;10.458;2023-04-28T10:09:47;1759.68;;;999.90;;
7239;SDS011;3661;53.288;10.458;2023-04-28T10:12:20;1783.53;;;999.90;;
7239;SDS011;3661;53.288;10.458;2023-04-28T10:14:54;1789.75;;;999.90;;
7239;SDS011;3661;53.288;10.458;2023-04-28T10:17:27;1795.65;;;999.90;;
7239;SDS011;3661;53.288;10.458;2023-04-28T10:19:59;1791.77;;;999.90;;
7239;SDS011;3661;53.288;10.458;2023-04-28T10:22:37;1798.68;;;999.90;;
7239;SDS011;3661;53.288;10.458;2023-04-28T10:25:26;1812.18;;;999.90;;
7239;SDS011;3661;53.288;10.458;2023-04-28T10:28:03;1816.18;;;999.90;;
7239;SDS011;3661;53.288;10.458;2023-04-28T10:30:36;1820.10;;;999.90;;
7239;SDS011;3661;53.288;10.458;2023-04-28T10:36:02;1832.78;;;999.90;;
7239;SDS011;3661;53.288;10.458;2023-04-28T10:38:35;1844.60;;;999.90;;
7239;SDS011;3661;53.288;10.458;2023-04-28T10:41:41;1826.25;;;999.90;;
7239;SDS011;3661;53.288;10.458;2023-04-28T10:59:51;1869.63;;;999.90;;
7239;SDS011;3661;53.288;10.458;2023-04-28T11:02:59;1898.05;;;999.90;;
7239;SDS011;3661;53.288;10.458;2023-04-28T11:05:32;1905.32;;;999.90;;
7239;SDS011;3661;53.288;10.458;2023-04-28T11:11:15;1896.78;;;999.90;;
7239;SDS011;3661;53.288;10.458;2023-04-28T11:13:55;1909.93;;;999.90;;
7239;SDS011;3661;53.288;10.458;2023-04-28T11:17:03;1896.55;;;999.90;;
7239;SDS011;3661;53.288;10.458;2023-04-28T11:19:36;1885.85;;;999.90;;
7239;SDS011;3661;53.288;10.458;2023-04-28T11:22:12;1900.68;;;999.90;;
7239;SDS011;3661;53.288;10.458;2023-04-28T11:24:55;1908.45;;;999.90;;
7239;SDS011;3661;53.288;10.458;2023-04-28T11:27:30;1916.40;;;999.90;;
7239;SDS011;3661;53.288;10.458;2023-04-28T11:30:17;1904.45;;;999.90;;
7239;SDS011;3661;53.288;10.458;2023-04-28T11:32:51;1904.72;;;999.90;;
7239;SDS011;3661;53.288;10.458;2023-04-28T11:35:23;1913.70;;;999.90;;
7239;SDS011;3661;53.288;10.458;2023-04-28T11:38:00;1909.60;;;999.90;;
7239;SDS011;3661;53.288;10.458;2023-04-28T11:40:34;1923.23;;;999.90;;
7239;SDS011;3661;53.288;10.458;2023-04-28T11:43:07;1917.75;;;999.90;;
7239;SDS011;3661;53.288;10.458;2023-04-28T11:45:44;1924.80;;;999.90;;
7239;SDS011;3661;53.288;10.458;2023-04-28T11:48:19;1920.00;;;999.90;;
7239;SDS011;3661;53.288;10.458;2023-04-28T11:50:52;1928.63;;;999.90;;
7239;SDS011;3661;53.288;10.458;2023-04-28T11:53:39;1918.23;;;999.90;;
7239;SDS011;3661;53.288;10.458;2023-04-28T11:56:12;1927.45;;;999.90;;
7239;SDS011;3661;53.288;10.458;2023-04-28T11:58:45;1921.22;;;999.90;;
7239;SDS011;3661;53.288;10.458;2023-04-28T12:01:29;1929.43;;;999.90;;
7239;SDS011;3661;53.288;10.458;2023-04-28T12:04:03;1910.13;;;999.90;;
7239;SDS011;3661;53.288;10.458;2023-04-28T12:06:35;1914.28;;;999.90;;
7239;SDS011;3661;53.288;10.458;2023-04-28T12:09:14;1916.60;;;999.90;;
7239;SDS011;3661;53.288;10.458;2023-04-28T12:11:53;1916.78;;;999.90;;
7239;SDS011;3661;53.288;10.458;2023-04-28T12:14:28;1934.50;;;999.90;;
7239;SDS011;3661;53.288;10.458;2023-04-28T12:17:01;1941.63;;;999.90;;
7239;SDS011;3661;53.288;10.458;2023-04-28T12:19:42;1930.88;;;999.90;;
7239;SDS011;3661;53.288;10.458;2023-04-28T12:22:15;1914.93;;;999.90;;
7239;SDS011;3661;53.288;10.458;2023-04-28T12:25:01;1935.10;;;999.90;;
7239;SDS011;3661;53.288;10.458;2023-04-28T12:27:37;1941.00;;;999.90;;
7239;SDS011;3661;53.288;10.458;2023-04-28T12:30:27;1935.47;;;999.90;;
7239;SDS011;3661;53.288;10.458;2023-04-28T12:33:00;1929.13;;;999.90;;
7239;SDS011;3661;53.288;10.458;2023-04-28T12:35:33;1928.75;;;999.90;;
7239;SDS011;3661;53.288;10.458;2023-04-28T12:38:05;1932.43;;;999.90;;
7239;SDS011;3661;53.288;10.458;2023-04-28T12:40:43;1911.68;;;999.90;;
7239;SDS011;3661;53.288;10.458;2023-04-28T12:43:15;1915.28;;;999.90;;
7239;SDS011;3661;53.288;10.458;2023-04-28T12:45:48;1905.97;;;999.90;;
7239;SDS011;3661;53.288;10.458;2023-04-28T12:48:22;1916.93;;;999.90;;
7239;SDS011;3661;53.288;10.458;2023-04-28T12:50:54;1920.65;;;999.90;;
7239;SDS011;3661;53.288;10.458;2023-04-28T12:53:26;1917.32;;;999.90;;
7239;SDS011;3661;53.288;10.458;2023-04-28T12:55:58;1912.43;;;999.90;;
7239;SDS011;3661;53.288;10.458;2023-04-28T12:58:30;1907.68;;;999.90;;
7239;SDS011;3661;53.288;10.458;2023-04-28T13:01:03;1901.63;;;999.90;;
7239;SDS011;3661;53.288;10.458;2023-04-28T13:03:35;1898.22;;;999.90;;
7239;SDS011;3661;53.288;10.458;2023-04-28T13:06:08;1911.47;;;999.90;;
7239;SDS011;3661;53.288;10.458;2023-04-28T13:08:40;1918.25;;;999.90;;
7239;SDS011;3661;53.288;10.458;2023-04-28T13:11:14;1915.00;;;999.90;;
7239;SDS011;3661;53.288;10.458;2023-04-28T13:13:46;1924.68;;;999.90;;
7239;SDS011;3661;53.288;10.458;2023-04-28T13:16:19;1913.10;;;999.90;;
7239;SDS011;3661;53.288;10.458;2023-04-28T13:18:54;1920.20;;;999.90;;
7239;SDS011;3661;53.288;10.458;2023-04-28T13:21:27;1917.93;;;999.90;;
7239;SDS011;3661;53.288;10.458;2023-04-28T13:23:59;1919.93;;;999.90;;
7239;SDS011;3661;53.288;10.458;2023-04-28T13:26:32;1920.88;;;999.90;;
7239;SDS011;3661;53.288;10.458;2023-04-28T13:29:05;1924.20;;;999.90;;
7239;SDS011;3661;53.288;10.458;2023-04-28T13:31:39;1917.72;;;999.90;;
7239;SDS011;3661;53.288;10.458;2023-04-28T13:34:12;1929.13;;;999.90;;
7239;SDS011;3661;53.288;10.458;2023-04-28T13:36:45;1914.90;;;999.90;;
7239;SDS011;3661;53.288;10.458;2023-04-28T13:39:20;1928.80;;;999.90;;
7239;SDS011;3661;53.288;10.458;2023-04-28T13:41:52;1918.07;;;999.90;;
7239;SDS011;3661;53.288;10.458;2023-04-28T13:44:24;1921.97;;;999.90;;
7239;SDS011;3661;53.288;10.458;2023-04-28T13:46:57;1936.82;;;999.90;;
7239;SDS011;3661;53.288;10.458;2023-04-28T13:49:29;1921.35;;;999.90;;
7239;SDS011;3661;53.288;10.458;2023-04-28T13:52:02;1927.65;;;999.90;;
7239;SDS011;3661;53.288;10.458;2023-04-28T13:54:34;1925.28;;;999.90;;
7239;SDS011;3661;53.288;10.458;2023-04-28T13:57:06;1929.57;;;999.90;;
7239;SDS011;3661;53.288;10.458;2023-04-28T13:59:38;1925.72;;;999.90;;
7239;SDS011;3661;53.288;10.458;2023-04-28T14:02:11;1912.35;;;999.90;;
7239;SDS011;3661;53.288;10.458;2023-04-28T14:04:43;1914.63;;;999.90;;
7239;SDS011;3661;53.288;10.458;2023-04-28T14:07:18;1910.53;;;999.90;;
7239;SDS011;3661;53.288;10.458;2023-04-28T14:09:50;1924.97;;;999.90;;
7239;SDS011;3661;53.288;10.458;2023-04-28T14:12:22;1920.03;;;999.90;;
7239;SDS011;3661;53.288;10.458;2023-04-28T14:14:54;1923.57;;;999.90;;
7239;SDS011;3661;53.288;10.458;2023-04-28T14:17:28;1927.45;;;999.90;;
7239;SDS011;3661;53.288;10.458;2023-04-28T14:20:01;1916.30;;;999.90;;
7239;SDS011;3661;53.288;10.458;2023-04-28T14:22:34;1930.60;;;999.90;;
7239;SDS011;3661;53.288;10.458;2023-04-28T14:25:06;1917.97;;;999.90;;
7239;SDS011;3661;53.288;10.458;2023-04-28T14:27:39;1928.10;;;999.90;;
7239;SDS011;3661;53.288;10.458;2023-04-28T14:30:11;1922.75;;;999.90;;
7239;SDS011;3661;53.288;10.458;2023-04-28T14:32:45;1907.72;;;999.90;;
7239;SDS011;3661;53.288;10.458;2023-04-28T14:35:17;1915.28;;;999.90;;
7239;SDS011;3661;53.288;10.458;2023-04-28T14:37:51;1917.05;;;999.90;;
7239;SDS011;3661;53.288;10.458;2023-04-28T14:40:23;1904.82;;;999.90;;
7239;SDS011;3661;53.288;10.458;2023-04-28T14:42:56;1904.63;;;999.90;;
7239;SDS011;3661;53.288;10.458;2023-04-28T14:45:28;1908.75;;;999.90;;
7239;SDS011;3661;53.288;10.458;2023-04-28T14:48:02;1909.22;;;999.90;;
7239;SDS011;3661;53.288;10.458;2023-04-28T14:50:35;1919.47;;;999.90;;
7239;SDS011;3661;53.288;10.458;2023-04-28T14:53:08;1909.13;;;999.90;;
7239;SDS011;3661;53.288;10.458;2023-04-28T14:55:40;1898.18;;;999.90;;
7239;SDS011;3661;53.288;10.458;2023-04-28T14:58:12;1902.60;;;999.90;;
7239;SDS011;3661;53.288;10.458;2023-04-28T15:00:44;1915.40;;;999.90;;
7239;SDS011;3661;53.288;10.458;2023-04-28T15:03:18;1897.07;;;999.90;;
7239;SDS011;3661;53.288;10.458;2023-04-28T15:05:51;1897.25;;;999.90;;